Williston, Vermont
Current Conditions -  °F | °C
As of 5:08 AM on Sunday 23 Nov 2014 (Local Time) from KBTV Reporting Station
Overcast Overcast  
Wind Chill: 33°   Ceiling: 2900
Heat Index: 41°   Visibility: 10mi
Dew Point: 35°   Wind: 15mph
Humidity: 79%   Direction: 190°S
Pressure: 29.99"   Gusts: NA
Location:  44.44°N, 73.07°W
Report Text: KBTV 231008Z 19013KT 10SM OVC029 05/02 A2999 RMK AO2 T00500017
Loading
Personal Weather Stations






























Interactive Weather Map New forecast layout! Learn more

10-Day Weather Forecast

Advertisements
Track Severe Weather on mobile